Aérodrome :
LOGIN :

S'inscrire | Disclaimer

   EN    FR    IT 

 










Légende :    VFR   VFR Marginal   IFR   IFR Intensif   IFR Très Intensif
Visi : 
Plafond : 
>= 8 km
>= 3000ft
5 à 8 km
1000 à 3000 ft
1500m à 5 km
500 à 1000 ft
800 à 1500m
200 à 500 ft
< 800m
< 200 ft
Symboles :   Orages  Brouillard  Fortes neiges  Fortes précipitations  Vent > 20 kt
SIGMETs :   Divers  Orages  Givrage  Turbulence  Onde Orograph.  Cendres Volcan.






- Altitude de l'aérodrome : 1674 ft
- Code IATA : BRN


LSZB - Bern Belp

DERNIER METAR :
  • 170450Z AUTO 29002KT 4700 BR FEW034 BKN039 M01/M02 Q1017 RESN

METARs EXPIRÉS :
  • 170420Z AUTO VRB01KT 5000 SCT034 BKN039 BKN046 M01/M01 Q1017 RESN
  • 170350Z AUTO 09003KT 040V120 5000 FEW023 SCT033 BKN037 M01/M02 Q1017
  • 170320Z AUTO 16005KT 4300 BR FEW039 SCT055 BKN065 M02/M02 Q1017 RESN
  • 170250Z AUTO VRB01KT 4200 -FZDZ SCT010 BKN013 BKN041 M01/M01 Q1017 RESN
  • 170220Z AUTO VRB02KT 5000 FEW005 BKN014 BKN016 M01/M02 Q1018 RESN

Prévision TAF périmée.
ATIS : +41 22 417 40 76



MET'MAP, la Météo Aéronautique d'un coup d'oeil ! - Copyright ORBIFLY Décembre 2007 - Disclaimer

ORBIFLY MET'MAP TEAM :

Programmation & Développement : Alexandra Zaïnal
Sur une idée originale de : Baudouin d'Aumeries
Assistance à la programmation : Marc-Olivier Méhu
Soutien technique & logistique : Manuel Goepfert

Contact : metmap@orbifly.com




SOURCES & CREDITS :

   NOAA